createdAt,value
2018-10-12T00:01:43.240Z,80.70
2018-10-12T00:04:12.440Z,81.10
2018-10-12T00:09:09.916Z,80.90
2018-10-12T00:11:38.464Z,80.60
2018-10-12T00:16:35.561Z,80.80
2018-10-12T00:19:03.929Z,81.00
2018-10-12T00:24:00.850Z,81.30
2018-10-12T00:31:25.831Z,81.80
2018-10-12T00:33:54.522Z,81.50
2018-10-12T00:36:23.221Z,81.30
2018-10-12T00:38:51.501Z,81.00
2018-10-12T00:41:19.987Z,81.30
2018-10-12T00:43:48.282Z,81.00
2018-10-12T00:46:16.801Z,81.00
2018-10-12T00:48:45.279Z,80.60
2018-10-12T00:53:41.785Z,80.60
2018-10-12T00:56:10.573Z,80.70
2018-10-12T00:58:38.809Z,80.80
2018-10-12T01:03:35.247Z,81.00
2018-10-12T01:06:04.309Z,80.90
2018-10-12T01:08:32.635Z,81.10
2018-10-12T01:11:01.027Z,80.80
2018-10-12T01:13:29.391Z,80.70
2018-10-12T01:15:57.643Z,80.90
2018-10-12T01:18:26.201Z,81.10
2018-10-12T01:20:54.925Z,80.70
2018-10-12T01:23:23.209Z,81.10
2018-10-12T01:28:19.765Z,81.80
2018-10-12T01:30:48.117Z,81.80
2018-10-12T01:33:16.423Z,82.00
2018-10-12T01:38:12.844Z,82.20
2018-10-12T01:40:41.603Z,81.60
2018-10-12T01:43:10.015Z,82.10
2018-10-12T01:45:40.612Z,82.00
2018-10-12T01:50:37.314Z,82.20
2018-10-12T01:53:05.715Z,83.10
2018-10-12T01:55:34.107Z,83.70
2018-10-12T02:02:59.072Z,83.50
2018-10-12T02:05:27.635Z,83.00
2018-10-12T02:07:55.860Z,83.40
2018-10-12T02:10:24.364Z,83.60
2018-10-12T02:15:20.886Z,83.90
2018-10-12T02:17:49.360Z,83.70
2018-10-12T02:25:13.583Z,81.70
2018-10-12T02:30:10.518Z,83.00
2018-10-12T02:35:07.328Z,83.20
2018-10-12T02:40:04.939Z,83.40
2018-10-12T02:45:02.293Z,83.40
2018-10-12T02:47:30.928Z,83.60
2018-10-12T02:49:59.543Z,82.80
2018-10-12T02:54:55.702Z,82.30
2018-10-12T02:57:24.140Z,81.90
2018-10-12T02:59:52.520Z,81.50
2018-10-12T03:02:21.884Z,81.80
2018-10-12T03:07:18.037Z,82.90
2018-10-12T03:09:46.355Z,82.90
2018-10-12T03:14:43.125Z,83.70
2018-10-12T03:17:12.172Z,83.60
2018-10-12T03:19:40.476Z,83.30
2018-10-12T03:22:09.261Z,83.10
2018-10-12T03:27:06.079Z,81.60
2018-10-12T03:32:02.445Z,81.70
2018-10-12T03:34:31.351Z,81.60
2018-10-12T03:37:00.060Z,82.30
2018-10-12T03:41:56.660Z,81.90
2018-10-12T03:44:25.112Z,82.00
2018-10-12T03:46:53.444Z,81.90
2018-10-12T03:49:21.866Z,81.60
2018-10-12T03:51:50.372Z,81.50
2018-10-12T03:59:15.416Z,81.20
2018-10-12T04:01:44.187Z,80.90
2018-10-12T04:04:12.536Z,80.60
2018-10-12T04:06:40.975Z,80.60
2018-10-12T04:09:09.257Z,80.70
2018-10-12T04:11:37.645Z,81.20
2018-10-12T04:14:06.359Z,81.00
2018-10-12T04:16:34.696Z,81.20
2018-10-12T04:21:32.284Z,80.80
2018-10-12T04:24:01.221Z,81.40
2018-10-12T04:28:57.960Z,81.10
2018-10-12T04:31:26.508Z,81.60
2018-10-12T04:36:22.775Z,81.40
2018-10-12T04:39:02.092Z,81.20
2018-10-12T04:41:31.729Z,81.30
2018-10-12T04:44:01.397Z,81.30
2018-10-12T04:46:37.124Z,81.00
2018-10-12T04:49:06.809Z,81.00
2018-10-12T04:51:39.590Z,81.20
2018-10-12T04:59:03.923Z,80.80
2018-10-12T05:01:32.853Z,80.70
2018-10-12T05:04:00.988Z,80.20
2018-10-12T05:06:29.063Z,80.00
2018-10-12T05:08:57.326Z,80.10
2018-10-12T05:11:26.292Z,80.30
2018-10-12T05:13:55.700Z,80.40
2018-10-12T05:21:21.569Z,80.20
2018-10-12T05:23:50.116Z,80.40
2018-10-12T05:26:18.479Z,80.20
2018-10-12T05:28:46.780Z,80.30
2018-10-12T05:31:15.372Z,80.40
2018-10-12T05:36:12.128Z,79.50
2018-10-12T05:38:40.297Z,78.40
2018-10-12T05:41:08.648Z,77.70
2018-10-12T05:43:37.362Z,76.50
2018-10-12T05:46:05.521Z,74.50
2018-10-12T05:48:44.984Z,71.90
2018-10-12T05:51:13.936Z,70.50
2018-10-12T05:53:43.017Z,69.00
2018-10-12T05:56:13.592Z,69.00
2018-10-12T06:01:10.564Z,66.10
2018-10-12T06:03:38.833Z,65.40
2018-10-12T06:06:07.484Z,63.80
2018-10-12T06:08:35.907Z,63.00
2018-10-12T06:13:32.382Z,64.00
2018-10-12T06:16:00.815Z,64.10
2018-10-12T06:18:29.261Z,64.80
2018-10-12T06:20:57.438Z,64.90
2018-10-12T06:23:25.925Z,64.40
2018-10-12T06:25:53.909Z,64.60
2018-10-12T06:28:21.985Z,65.30
2018-10-12T06:30:50.484Z,65.70
2018-10-12T06:33:19.148Z,66.10
2018-10-12T06:35:48.236Z,66.70
2018-10-12T06:38:16.746Z,66.80
2018-10-12T06:43:13.293Z,67.50
2018-10-12T06:45:41.856Z,68.10
2018-10-12T06:48:10.253Z,68.20
2018-10-12T06:50:39.140Z,68.30
2018-10-12T06:53:07.736Z,66.00
2018-10-12T06:55:35.985Z,65.10
2018-10-12T06:58:04.397Z,62.30
2018-10-12T07:00:33.056Z,59.20
2018-10-12T07:03:02.403Z,56.40
2018-10-12T07:05:30.856Z,54.00
2018-10-12T07:07:59.296Z,52.40
2018-10-12T07:12:56.284Z,49.50
2018-10-12T07:15:24.846Z,48.80
2018-10-12T07:17:53.129Z,47.70
2018-10-12T07:20:21.392Z,47.00
2018-10-12T07:22:49.808Z,46.70
2018-10-12T07:27:46.229Z,45.00
2018-10-12T07:30:14.671Z,43.60
2018-10-12T07:32:43.196Z,43.00
2018-10-12T07:35:11.368Z,43.20
2018-10-12T07:37:39.708Z,42.70
2018-10-12T07:40:08.517Z,42.10
2018-10-12T07:42:36.707Z,40.70
2018-10-12T07:45:05.549Z,40.60
2018-10-12T07:47:34.179Z,40.40
2018-10-12T07:50:02.287Z,40.30
2018-10-12T07:52:30.979Z,40.10
2018-10-12T07:54:59.684Z,39.40
2018-10-12T08:00:00.207Z,38.60
2018-10-12T08:02:28.648Z,38.10
2018-10-12T08:04:57.024Z,39.00
2018-10-12T08:07:25.529Z,38.10
2018-10-12T08:09:54.114Z,38.90
2018-10-12T08:12:22.492Z,40.70
2018-10-12T08:14:50.914Z,41.10
2018-10-12T08:17:19.255Z,40.30
2018-10-12T08:19:48.804Z,39.90
2018-10-12T08:22:17.326Z,40.90
2018-10-12T08:24:46.252Z,40.50
2018-10-12T08:27:14.604Z,41.90
2018-10-12T08:29:42.585Z,41.50
2018-10-12T08:32:10.835Z,41.30
2018-10-12T08:34:39.158Z,40.60
2018-10-12T08:37:07.752Z,41.60
2018-10-12T08:39:36.876Z,41.80
2018-10-12T08:44:33.048Z,40.80
2018-10-12T08:47:01.432Z,38.90
2018-10-12T08:49:29.707Z,38.30
2018-10-12T08:51:58.188Z,38.20
2018-10-12T08:54:26.493Z,38.40
2018-10-12T08:56:54.915Z,39.30
2018-10-12T08:59:23.312Z,39.30
2018-10-12T09:01:51.675Z,38.90
2018-10-12T09:04:19.956Z,38.50
2018-10-12T09:06:48.459Z,37.80
2018-10-12T09:09:16.838Z,40.40
2018-10-12T09:11:45.248Z,41.30
2018-10-12T09:16:47.118Z,39.70
2018-10-12T09:19:15.545Z,37.90
2018-10-12T09:21:43.843Z,36.70
2018-10-12T09:26:43.442Z,36.50
2018-10-12T09:29:11.704Z,36.10
2018-10-12T09:31:39.992Z,35.50
2018-10-12T09:36:36.756Z,34.40
2018-10-12T09:39:06.155Z,33.50
2018-10-12T09:44:02.401Z,34.30
2018-10-12T09:46:31.405Z,33.70
2018-10-12T09:48:59.789Z,33.60
2018-10-12T09:51:28.112Z,33.10
2018-10-12T09:53:56.530Z,33.40
2018-10-12T09:58:54.204Z,33.50
2018-10-12T10:01:27.881Z,33.40
2018-10-12T10:06:30.028Z,33.60
2018-10-12T10:11:26.568Z,34.70
2018-10-12T10:13:55.097Z,34.80
2018-10-12T10:18:51.864Z,35.30
2018-10-12T10:21:20.089Z,35.30
2018-10-12T10:23:48.376Z,35.00
2018-10-12T10:26:16.829Z,34.40
2018-10-12T10:28:45.541Z,34.60
2018-10-12T10:31:13.825Z,35.40
2018-10-12T10:36:10.195Z,34.60
2018-10-12T10:41:07.006Z,34.10
2018-10-12T10:43:36.646Z,35.10
2018-10-12T10:46:05.697Z,36.30
2018-10-12T10:51:03.702Z,37.40
2018-10-12T10:53:32.392Z,37.80
2018-10-12T11:00:57.527Z,39.20
2018-10-12T11:05:54.335Z,39.00
2018-10-12T11:08:22.531Z,38.90
2018-10-12T11:10:51.052Z,39.30
2018-10-12T11:13:20.092Z,39.40
2018-10-12T11:15:48.416Z,40.40
2018-10-12T11:18:17.603Z,41.00
2018-10-12T11:20:46.664Z,40.40
2018-10-12T11:23:15.125Z,40.60
2018-10-12T11:25:43.323Z,40.80
2018-10-12T11:28:11.811Z,41.00
2018-10-12T11:30:40.393Z,41.40
2018-10-12T11:35:48.639Z,41.60
2018-10-12T11:38:17.041Z,41.40
2018-10-12T11:45:52.602Z,42.70
2018-10-12T11:48:21.065Z,42.40
2018-10-12T11:50:49.323Z,42.90
2018-10-12T11:53:17.936Z,42.80
2018-10-12T11:58:14.468Z,42.60
2018-10-12T12:00:43.058Z,42.80
2018-10-12T12:05:40.066Z,43.20
2018-10-12T12:08:08.964Z,43.10
2018-10-12T12:13:06.544Z,42.50
2018-10-12T12:15:35.527Z,42.10
2018-10-12T12:18:03.876Z,42.40
2018-10-12T12:20:32.236Z,42.00
2018-10-12T12:23:00.592Z,41.90
2018-10-12T12:30:26.965Z,42.30
2018-10-12T12:32:55.184Z,42.10
2018-10-12T12:37:53.876Z,42.60
2018-10-12T12:40:33.705Z,42.40
2018-10-12T12:43:18.084Z,43.00
2018-10-12T12:45:58.135Z,43.30
2018-10-12T12:50:54.793Z,43.20
2018-10-12T12:53:23.057Z,43.10
2018-10-12T12:55:51.413Z,42.90
2018-10-12T12:58:19.649Z,42.90
2018-10-12T13:00:48.239Z,42.90
2018-10-12T13:03:16.481Z,43.00
2018-10-12T13:05:44.999Z,43.20
2018-10-12T13:10:41.984Z,42.40
2018-10-12T13:13:10.257Z,43.10
2018-10-12T13:15:38.531Z,43.30
2018-10-12T13:18:06.756Z,43.80
2018-10-12T13:27:59.903Z,44.80
2018-10-12T13:30:28.651Z,44.30
2018-10-12T13:32:57.216Z,44.60
2018-10-12T13:35:25.868Z,45.20
2018-10-12T13:37:54.447Z,44.90
2018-10-12T13:40:22.919Z,44.60
2018-10-12T13:42:51.239Z,44.70
2018-10-12T13:45:19.589Z,44.80
2018-10-12T13:47:48.220Z,45.20
2018-10-12T13:50:16.568Z,45.50
2018-10-12T13:52:45.052Z,45.10
2018-10-12T13:57:42.459Z,46.30
2018-10-12T14:00:26.965Z,46.60
2018-10-12T14:02:55.126Z,46.40
2018-10-12T14:05:23.938Z,46.50
2018-10-12T14:07:52.156Z,46.50
2018-10-12T14:10:20.590Z,46.60
2018-10-12T14:12:49.261Z,46.60
2018-10-12T14:15:17.760Z,46.40
2018-10-12T14:17:45.913Z,46.00
2018-10-12T14:20:14.672Z,46.40
2018-10-12T14:30:07.359Z,48.20
2018-10-12T14:32:35.679Z,48.00
2018-10-12T14:35:04.191Z,48.40
2018-10-12T14:37:32.795Z,48.70
2018-10-12T14:40:01.020Z,48.70
2018-10-12T14:44:57.628Z,48.80
2018-10-12T14:47:26.074Z,49.00
2018-10-12T14:49:54.347Z,49.50
2018-10-12T14:52:23.037Z,49.20
2018-10-12T14:59:50.360Z,50.30
2018-10-12T15:02:19.241Z,50.50
2018-10-12T15:04:47.861Z,50.40
2018-10-12T15:07:16.451Z,50.30
2018-10-12T15:09:44.720Z,51.10
2018-10-12T15:12:13.030Z,51.80
2018-10-12T15:14:52.239Z,52.00
2018-10-12T15:17:20.603Z,52.20
2018-10-12T15:19:49.225Z,52.10
2018-10-12T15:22:17.672Z,52.40
2018-10-12T15:24:46.090Z,52.90
2018-10-12T15:27:14.343Z,52.90
2018-10-12T15:29:42.872Z,52.80
2018-10-12T15:34:39.263Z,53.60
2018-10-12T15:37:07.978Z,53.90
2018-10-12T15:42:04.324Z,55.10
2018-10-12T15:44:32.695Z,55.50
2018-10-12T15:47:01.120Z,55.80
2018-10-12T15:49:29.717Z,56.60
2018-10-12T15:54:26.237Z,57.40
2018-10-12T15:56:55.403Z,57.70
2018-10-12T15:59:23.672Z,58.40
2018-10-12T16:04:20.797Z,58.00
2018-10-12T16:06:49.633Z,58.70
2018-10-12T16:09:18.009Z,58.90
2018-10-12T16:11:46.795Z,59.00
2018-10-12T16:16:42.952Z,59.30
2018-10-12T16:24:09.113Z,60.10
2018-10-12T16:26:37.777Z,60.60
2018-10-12T16:29:06.369Z,61.30
2018-10-12T16:31:34.664Z,62.00
2018-10-12T16:34:02.924Z,62.00
2018-10-12T16:38:59.709Z,62.20
2018-10-12T16:41:28.643Z,62.40
2018-10-12T16:43:56.938Z,62.20
2018-10-12T16:46:25.236Z,62.60
2018-10-12T16:48:53.639Z,62.60
2018-10-12T16:51:21.977Z,62.70
2018-10-12T16:56:19.993Z,62.20
2018-10-12T16:58:48.118Z,62.50
2018-10-12T17:01:17.673Z,62.50
2018-10-12T17:06:14.521Z,62.20
2018-10-12T17:08:42.898Z,62.40
2018-10-12T17:11:11.127Z,62.40
2018-10-12T17:13:39.704Z,62.60
2018-10-12T17:16:08.074Z,62.20
2018-10-12T17:21:04.784Z,61.60
2018-10-12T17:23:33.133Z,61.40
2018-10-12T17:26:01.449Z,62.00
2018-10-12T17:30:57.928Z,61.80
2018-10-12T17:33:26.371Z,61.70
2018-10-12T17:38:23.411Z,61.40
2018-10-12T17:43:19.822Z,61.90
2018-10-12T17:45:48.705Z,62.00
2018-10-12T17:50:45.922Z,62.30
2018-10-12T17:53:14.292Z,62.30
2018-10-12T17:58:10.628Z,62.80
2018-10-12T18:00:39.059Z,62.40
2018-10-12T18:03:07.460Z,62.30
2018-10-12T18:05:36.256Z,62.30
2018-10-12T18:08:04.564Z,62.90
2018-10-12T18:10:32.916Z,62.80
2018-10-12T18:13:01.697Z,62.70
2018-10-12T18:15:29.992Z,62.50
2018-10-12T18:20:26.519Z,62.10
2018-10-12T18:22:54.908Z,62.00
2018-10-12T18:25:23.185Z,61.70
2018-10-12T18:27:51.796Z,62.00
2018-10-12T18:30:20.596Z,62.20
2018-10-12T18:35:17.495Z,62.10
2018-10-12T18:37:45.920Z,62.30
2018-10-12T18:40:14.359Z,62.00
2018-10-12T18:42:42.730Z,62.10
2018-10-12T18:45:11.053Z,62.40
2018-10-12T18:47:39.396Z,62.30
2018-10-12T18:50:07.628Z,62.80
2018-10-12T18:55:04.585Z,62.60
2018-10-12T18:57:33.923Z,62.60
2018-10-12T19:00:03.888Z,62.40
2018-10-12T19:02:32.991Z,62.50
2018-10-12T19:05:01.262Z,62.40
2018-10-12T19:07:30.314Z,63.00
2018-10-12T19:12:26.978Z,62.80
2018-10-12T19:17:24.103Z,62.40
2018-10-12T19:22:20.909Z,62.80
2018-10-12T19:27:17.284Z,63.30
2018-10-12T19:29:46.568Z,63.40
2018-10-12T19:32:14.965Z,63.20
2018-10-12T19:34:43.332Z,63.20
2018-10-12T19:37:11.733Z,62.80
2018-10-12T19:39:39.983Z,62.60
2018-10-12T19:42:08.374Z,62.60
2018-10-12T19:44:36.713Z,63.10
2018-10-12T19:47:04.848Z,63.60
2018-10-12T19:49:33.285Z,63.80
2018-10-12T19:52:02.013Z,63.80
2018-10-12T19:54:30.353Z,63.90
2018-10-12T19:56:58.651Z,64.40
2018-10-12T19:59:27.302Z,65.10
2018-10-12T20:01:55.459Z,64.90
2018-10-12T20:06:51.753Z,65.30
2018-10-12T20:09:20.024Z,65.90
2018-10-12T20:11:49.968Z,66.70
2018-10-12T20:16:48.211Z,66.90
2018-10-12T20:21:44.990Z,67.70
2018-10-12T20:24:13.669Z,67.50
2018-10-12T20:26:42.465Z,68.10
2018-10-12T20:29:10.738Z,68.60
2018-10-12T20:31:39.846Z,68.60
2018-10-12T20:39:05.955Z,69.50
2018-10-12T20:41:34.352Z,69.30
2018-10-12T20:44:03.865Z,69.80
2018-10-12T20:46:32.027Z,69.80
2018-10-12T20:49:00.609Z,70.00
2018-10-12T20:53:57.173Z,69.30
2018-10-12T20:58:53.765Z,68.70
2018-10-12T21:03:50.229Z,68.40
2018-10-12T21:06:18.571Z,68.80
2018-10-12T21:08:46.966Z,68.80
2018-10-12T21:11:16.037Z,68.60
2018-10-12T21:13:44.329Z,68.70
2018-10-12T21:16:12.696Z,68.70
2018-10-12T21:18:41.397Z,69.10
2018-10-12T21:21:09.632Z,68.80
2018-10-12T21:23:38.003Z,68.70
2018-10-12T21:26:06.081Z,68.50
2018-10-12T21:28:34.259Z,68.40
2018-10-12T21:31:02.660Z,68.70
2018-10-12T21:33:30.931Z,68.40
2018-10-12T21:35:59.510Z,68.50
2018-10-12T21:43:23.926Z,68.40
2018-10-12T21:48:21.417Z,68.60
2018-10-12T21:53:18.268Z,69.00
2018-10-12T21:55:47.054Z,69.00
2018-10-12T21:58:15.491Z,68.90
2018-10-12T22:00:48.199Z,69.20
2018-10-12T22:03:16.357Z,68.90
2018-10-12T22:05:44.485Z,69.10
2018-10-12T22:08:17.371Z,69.30
2018-10-12T22:10:45.954Z,69.40
2018-10-12T22:13:14.364Z,69.80
2018-10-12T22:18:10.751Z,69.60
2018-10-12T22:20:39.118Z,69.60
2018-10-12T22:25:35.164Z,69.40
2018-10-12T22:28:03.672Z,69.20
2018-10-12T22:33:01.112Z,69.30
2018-10-12T22:35:29.922Z,69.00
2018-10-12T22:40:26.833Z,69.80
2018-10-12T22:42:55.440Z,69.80
2018-10-12T22:47:53.124Z,70.80
2018-10-12T22:50:21.515Z,70.20
2018-10-12T22:52:49.905Z,69.50
2018-10-12T22:55:18.568Z,69.40
2018-10-12T22:57:46.847Z,69.30
2018-10-12T23:00:15.241Z,69.50
2018-10-12T23:02:43.614Z,69.80
2018-10-12T23:05:11.882Z,70.40
2018-10-12T23:07:40.332Z,70.10
2018-10-12T23:10:08.545Z,70.40
2018-10-12T23:12:36.944Z,71.00
2018-10-12T23:15:05.608Z,71.00
2018-10-12T23:17:34.891Z,71.00
2018-10-12T23:20:03.452Z,71.10
2018-10-12T23:22:32.263Z,71.20
2018-10-12T23:27:28.720Z,71.50
2018-10-12T23:29:57.416Z,71.80
2018-10-12T23:32:26.412Z,72.10
2018-10-12T23:34:54.676Z,72.10
2018-10-12T23:37:23.488Z,71.90
2018-10-12T23:39:52.188Z,71.80
2018-10-12T23:42:20.525Z,72.10
2018-10-12T23:47:17.596Z,71.80
2018-10-12T23:49:45.981Z,72.40
2018-10-12T23:54:43.044Z,72.10
2018-10-12T23:57:11.383Z,72.70
